Pagrindinis puslapis
METAR-TAF:

METAR-TAF

Oro uostai :

Liepojos tarptautinis oro uostas

Liepoja, Latvija

platuma: 56-31N, ilguma: 021-05E, Aukštis: 5 m

Dabartinis oras

Ataskaita buvo paskelbta 20 minutes, ne 03:20 UTC
Vėjas 1 kt iš Rytų/Šiaurės Rytų
Temperatūra 7°C
Drėgmė 93%
Slėgis 1021 hPa
Matomumas 10 km arba daugiau

METAR: EVLA 190320Z AUTO 06001KT 9999 FEW003/// 07/06 Q1021

Laikas: 06:40 (03:40 UTC)

Prognozė

Ataskaita buvo paskelbta 1 valandą ir 36 minutes, ne 02:04 UTC
Prognozė galioja nuo 19 metu 03 UTC su 20 metu 03 UTC
Vėjas 5 kt iš Vakarų/Pietvakarių
Matomumas 10 km arba daugiau
nėra debesų žemiau 1500 m ir nėra kamuolinių lietaus debesų
Laikinai
nuo 19 metu 03 UTC su 19 metu 07 UTC
Matomumas: 0700 m
Su prošvaistėmis ne aukštis 100 ft
rūkas
Tapsmas
nuo 19 metu 08 UTC su 19 metu 10 UTC
Vėjas 10 kt iš Šiaurės/Šiaurės Vakarų
Tapsmas
nuo 19 metu 18 UTC su 19 metu 20 UTC
Vėjas 2 kt nuo kintamojo kryptimis

TAF: EVLA 190204Z 1903/2003 25005KT CAVOK TEMPO 1903/1907 0700 FG BKN001 BECMG 1908/1910 34010KT BECMG 1918/1920 VRB02KT

Orai ataskaitas ir orų prognozės (METAR, TAF).

turimą stotys yra geltonos ir raudonos taškus žemėlapyje.

Perkelti pele per norėdami pamatyti stoties vardą.

Tada spustelėkite, norėdami matyti oro stebėjimo ir prognozės.

Norėdami pakeisti žemėlapį: spustelėkite ant žalios mygtukų su juodo kryžiaus žemyn,; žalią mygtuką su brūkšneliu, jei norite nutolinti; arba žalių rodyklių gretimoms žemėlapius.


METAR-TAF: